Kleine Brogel, Belgium

6:57 AM CEST on August 25, 2016 (GMT +0200)
Dorpsstraat | | Change Station
Active Advisory: nederlands: fran├žais:

Elev 187 ft 51.15 °N, 5.51 °E | Updated 1 minute ago

Clear
Clear
64.2 °F
Feels Like 64.2 °F
N
0.0
Wind Variable Wind from North
Gusts 0.6 mph

Today
High -- | Low -- °F
--% Chance of Precip.
Yesterday
High -- | Low -- °F
Precip. -- in
Pressure 30.01 in
Visibility 6.2 miles
Clouds
Dew Point 60 °F
Humidity 86%
Rainfall 0.00 in
Snow Depth Not available.
6:40 AM 8:38 PM
Waning Gibbous, 49% visible
SPECI EHEH 250436Z AUTO 14003KT 100V160 9999 NCD 19/16 Q1016 BLU 15006KT CAVOK
Pressure 30.01 in
Visibility 6.2 miles
Clouds
Dew Point 60 °F
Humidity 86%
Rainfall 0.00 in
Snow Depth Not available.
6:40 AM 8:38 PM
Waning Gibbous, 49% visible
SPECI EHEH 250436Z AUTO 14003KT 100V160 9999 NCD 19/16 Q1016 BLU 15006KT CAVOK

10-Day Weather Forecast

×

Almanac

Astronomy

Aug. 25, 2016 Rise Set
Actual Time
Civil Twilight
Nautical Twilight
Astronomical Twilight
Moon
Length of Visible Light
Length of Day
Tomorrow will be .
, % of the Moon is Illuminated

Today's Extremes

Country Highs Country Lows

Community

WunderPhotos

Upload Photos

1,934,798 photos uploaded!

WunderBlog® & News

Nearby

Air Quality

  Air Quality AQ Index Pollutant
Not available.

Snow Depth

Station Depth Elevation

Earthquake Activity

City Distance Mag. Time & Date
Minimum magnitude displayed is 2.5.

Coastal Water Temperatures

Place Temperature

Stations

Nearby Weather Stations

Station Location Temp. Windchill Dew Point Humidity Wind Precip. Elev Updated Type